sensor_id;sensor_type;location;lat;lon;timestamp;P1;durP1;ratioP1;P2;durP2;ratioP2
32838;SDS011;19182;41.820;12.808;2023-02-15T00:01:13;25.00;;;12.93;;
32838;SDS011;19182;41.820;12.808;2023-02-15T00:03:38;21.63;;;12.50;;
32838;SDS011;19182;41.820;12.808;2023-02-15T00:06:04;23.13;;;13.25;;
32838;SDS011;19182;41.820;12.808;2023-02-15T00:08:30;25.88;;;12.88;;
32838;SDS011;19182;41.820;12.808;2023-02-15T00:11:18;23.45;;;12.23;;
32838;SDS011;19182;41.820;12.808;2023-02-15T00:14:25;25.50;;;12.38;;
32838;SDS011;19182;41.820;12.808;2023-02-15T00:16:50;22.83;;;12.88;;
32838;SDS011;19182;41.820;12.808;2023-02-15T00:19:18;22.05;;;12.32;;
32838;SDS011;19182;41.820;12.808;2023-02-15T00:21:45;29.83;;;13.27;;
32838;SDS011;19182;41.820;12.808;2023-02-15T00:24:13;25.65;;;13.23;;
32838;SDS011;19182;41.820;12.808;2023-02-15T00:26:40;20.85;;;11.68;;
32838;SDS011;19182;41.820;12.808;2023-02-15T00:29:07;22.17;;;12.02;;
32838;SDS011;19182;41.820;12.808;2023-02-15T00:31:34;21.63;;;12.13;;
32838;SDS011;19182;41.820;12.808;2023-02-15T00:34:01;22.50;;;11.52;;
32838;SDS011;19182;41.820;12.808;2023-02-15T00:36:30;21.50;;;12.32;;
32838;SDS011;19182;41.820;12.808;2023-02-15T00:38:56;21.85;;;12.57;;
32838;SDS011;19182;41.820;12.808;2023-02-15T00:41:22;19.48;;;11.63;;
32838;SDS011;19182;41.820;12.808;2023-02-15T00:43:48;23.48;;;12.32;;
32838;SDS011;19182;41.820;12.808;2023-02-15T00:46:13;20.60;;;11.63;;
32838;SDS011;19182;41.820;12.808;2023-02-15T00:48:39;21.48;;;11.80;;
32838;SDS011;19182;41.820;12.808;2023-02-15T00:51:05;22.08;;;11.35;;
32838;SDS011;19182;41.820;12.808;2023-02-15T00:53:33;20.75;;;12.25;;
32838;SDS011;19182;41.820;12.808;2023-02-15T00:55:59;20.38;;;11.32;;
32838;SDS011;19182;41.820;12.808;2023-02-15T00:58:25;19.10;;;10.45;;
32838;SDS011;19182;41.820;12.808;2023-02-15T01:00:51;18.95;;;10.65;;
32838;SDS011;19182;41.820;12.808;2023-02-15T01:03:18;22.58;;;11.18;;
32838;SDS011;19182;41.820;12.808;2023-02-15T01:05:44;18.05;;;10.00;;
32838;SDS011;19182;41.820;12.808;2023-02-15T01:08:12;17.92;;;10.23;;
32838;SDS011;19182;41.820;12.808;2023-02-15T01:10:37;17.40;;;10.45;;
32838;SDS011;19182;41.820;12.808;2023-02-15T01:13:04;17.65;;;11.18;;
32838;SDS011;19182;41.820;12.808;2023-02-15T01:15:30;17.25;;;10.48;;
32838;SDS011;19182;41.820;12.808;2023-02-15T01:17:56;18.42;;;10.85;;
32838;SDS011;19182;41.820;12.808;2023-02-15T01:20:26;19.38;;;11.00;;
32838;SDS011;19182;41.820;12.808;2023-02-15T01:22:53;23.17;;;11.27;;
32838;SDS011;19182;41.820;12.808;2023-02-15T01:25:20;24.15;;;11.93;;
32838;SDS011;19182;41.820;12.808;2023-02-15T01:27:47;22.92;;;12.40;;
32838;SDS011;19182;41.820;12.808;2023-02-15T01:30:14;21.15;;;11.68;;
32838;SDS011;19182;41.820;12.808;2023-02-15T01:32:41;21.45;;;10.85;;
32838;SDS011;19182;41.820;12.808;2023-02-15T01:35:08;19.65;;;11.20;;
32838;SDS011;19182;41.820;12.808;2023-02-15T01:37:34;21.27;;;12.27;;
32838;SDS011;19182;41.820;12.808;2023-02-15T01:40:01;25.27;;;13.60;;
32838;SDS011;19182;41.820;12.808;2023-02-15T01:42:28;24.90;;;12.95;;
32838;SDS011;19182;41.820;12.808;2023-02-15T01:44:55;23.83;;;12.77;;
32838;SDS011;19182;41.820;12.808;2023-02-15T01:47:23;24.92;;;12.93;;
32838;SDS011;19182;41.820;12.808;2023-02-15T01:50:08;24.23;;;12.55;;
32838;SDS011;19182;41.820;12.808;2023-02-15T01:52:40;22.63;;;12.55;;
32838;SDS011;19182;41.820;12.808;2023-02-15T01:58:17;20.38;;;9.93;;
32838;SDS011;19182;41.820;12.808;2023-02-15T02:00:43;24.23;;;11.57;;
32838;SDS011;19182;41.820;12.808;2023-02-15T02:03:09;22.35;;;11.05;;
32838;SDS011;19182;41.820;12.808;2023-02-15T02:05:35;22.40;;;11.23;;
32838;SDS011;19182;41.820;12.808;2023-02-15T02:08:02;21.60;;;11.52;;
32838;SDS011;19182;41.820;12.808;2023-02-15T02:10:29;19.23;;;11.60;;
32838;SDS011;19182;41.820;12.808;2023-02-15T02:12:58;19.33;;;11.38;;
32838;SDS011;19182;41.820;12.808;2023-02-15T02:15:33;24.38;;;11.63;;
32838;SDS011;19182;41.820;12.808;2023-02-15T02:20:59;21.52;;;12.75;;
32838;SDS011;19182;41.820;12.808;2023-02-15T02:35:08;21.02;;;12.23;;
32838;SDS011;19182;41.820;12.808;2023-02-15T02:38:18;22.15;;;12.65;;
32838;SDS011;19182;41.820;12.808;2023-02-15T02:41:16;20.73;;;12.63;;
32838;SDS011;19182;41.820;12.808;2023-02-15T02:44:13;25.00;;;11.98;;
32838;SDS011;19182;41.820;12.808;2023-02-15T02:46:51;26.95;;;12.43;;
32838;SDS011;19182;41.820;12.808;2023-02-15T02:49:43;23.05;;;12.00;;
32838;SDS011;19182;41.820;12.808;2023-02-15T02:52:55;20.10;;;12.07;;
32838;SDS011;19182;41.820;12.808;2023-02-15T02:54:57;19.92;;;10.85;;
32838;SDS011;19182;41.820;12.808;2023-02-15T02:57:24;19.67;;;10.63;;
32838;SDS011;19182;41.820;12.808;2023-02-15T02:59:52;22.60;;;11.88;;
32838;SDS011;19182;41.820;12.808;2023-02-15T03:02:24;27.02;;;10.85;;
32838;SDS011;19182;41.820;12.808;2023-02-15T03:04:55;20.17;;;10.73;;
32838;SDS011;19182;41.820;12.808;2023-02-15T03:07:28;29.50;;;12.27;;
32838;SDS011;19182;41.820;12.808;2023-02-15T03:09:57;18.25;;;11.00;;
32838;SDS011;19182;41.820;12.808;2023-02-15T03:12:28;21.45;;;10.88;;
32838;SDS011;19182;41.820;12.808;2023-02-15T03:15:06;19.88;;;10.25;;
32838;SDS011;19182;41.820;12.808;2023-02-15T03:17:41;18.85;;;10.57;;
32838;SDS011;19182;41.820;12.808;2023-02-15T03:20:20;19.90;;;10.68;;
32838;SDS011;19182;41.820;12.808;2023-02-15T03:22:59;19.55;;;10.52;;
32838;SDS011;19182;41.820;12.808;2023-02-15T03:25:34;18.88;;;10.32;;
32838;SDS011;19182;41.820;12.808;2023-02-15T03:28:06;20.65;;;10.98;;
32838;SDS011;19182;41.820;12.808;2023-02-15T03:30:34;15.25;;;9.77;;
32838;SDS011;19182;41.820;12.808;2023-02-15T03:33:02;17.80;;;10.63;;
32838;SDS011;19182;41.820;12.808;2023-02-15T03:35:33;20.83;;;10.75;;
32838;SDS011;19182;41.820;12.808;2023-02-15T03:38:06;19.30;;;10.48;;
32838;SDS011;19182;41.820;12.808;2023-02-15T03:40:43;18.67;;;9.85;;
32838;SDS011;19182;41.820;12.808;2023-02-15T03:43:52;24.55;;;10.05;;
32838;SDS011;19182;41.820;12.808;2023-02-15T03:46:31;19.05;;;10.50;;
32838;SDS011;19182;41.820;12.808;2023-02-15T03:49:17;19.90;;;10.77;;
32838;SDS011;19182;41.820;12.808;2023-02-15T03:52:04;20.00;;;10.70;;
32838;SDS011;19182;41.820;12.808;2023-02-15T03:54:32;22.13;;;10.25;;
32838;SDS011;19182;41.820;12.808;2023-02-15T04:00:30;18.45;;;10.50;;
32838;SDS011;19182;41.820;12.808;2023-02-15T04:03:23;20.55;;;10.95;;
32838;SDS011;19182;41.820;12.808;2023-02-15T04:05:56;18.00;;;10.60;;
32838;SDS011;19182;41.820;12.808;2023-02-15T04:08:22;18.88;;;9.85;;
32838;SDS011;19182;41.820;12.808;2023-02-15T04:11:07;18.02;;;9.57;;
32838;SDS011;19182;41.820;12.808;2023-02-15T04:13:35;18.20;;;10.13;;
32838;SDS011;19182;41.820;12.808;2023-02-15T04:16:01;22.25;;;11.02;;
32838;SDS011;19182;41.820;12.808;2023-02-15T04:21:24;22.30;;;10.68;;
32838;SDS011;19182;41.820;12.808;2023-02-15T04:24:10;18.17;;;10.05;;
32838;SDS011;19182;41.820;12.808;2023-02-15T04:26:55;17.60;;;10.50;;
32838;SDS011;19182;41.820;12.808;2023-02-15T04:29:23;21.27;;;10.77;;
32838;SDS011;19182;41.820;12.808;2023-02-15T04:31:50;21.50;;;10.25;;
32838;SDS011;19182;41.820;12.808;2023-02-15T04:34:17;18.67;;;9.70;;
32838;SDS011;19182;41.820;12.808;2023-02-15T04:36:43;18.27;;;9.57;;
32838;SDS011;19182;41.820;12.808;2023-02-15T04:39:08;20.50;;;10.68;;
32838;SDS011;19182;41.820;12.808;2023-02-15T04:41:37;18.63;;;10.23;;
32838;SDS011;19182;41.820;12.808;2023-02-15T04:44:02;19.13;;;11.27;;
32838;SDS011;19182;41.820;12.808;2023-02-15T04:46:28;21.90;;;11.07;;
32838;SDS011;19182;41.820;12.808;2023-02-15T04:48:54;22.35;;;10.48;;
32838;SDS011;19182;41.820;12.808;2023-02-15T04:51:20;19.98;;;10.18;;
32838;SDS011;19182;41.820;12.808;2023-02-15T04:53:46;15.98;;;9.85;;
32838;SDS011;19182;41.820;12.808;2023-02-15T04:56:12;18.55;;;9.43;;
32838;SDS011;19182;41.820;12.808;2023-02-15T04:58:37;21.50;;;9.65;;
32838;SDS011;19182;41.820;12.808;2023-02-15T05:01:06;17.75;;;9.98;;
32838;SDS011;19182;41.820;12.808;2023-02-15T05:03:32;20.00;;;10.60;;
32838;SDS011;19182;41.820;12.808;2023-02-15T05:05:58;18.38;;;9.88;;
32838;SDS011;19182;41.820;12.808;2023-02-15T05:08:24;21.55;;;10.68;;
32838;SDS011;19182;41.820;12.808;2023-02-15T05:10:49;19.95;;;10.80;;
32838;SDS011;19182;41.820;12.808;2023-02-15T05:13:15;17.75;;;9.77;;
32838;SDS011;19182;41.820;12.808;2023-02-15T05:15:45;25.08;;;10.45;;
32838;SDS011;19182;41.820;12.808;2023-02-15T05:18:13;19.80;;;10.68;;
32838;SDS011;19182;41.820;12.808;2023-02-15T05:20:41;19.00;;;10.02;;
32838;SDS011;19182;41.820;12.808;2023-02-15T05:23:06;24.67;;;11.38;;
32838;SDS011;19182;41.820;12.808;2023-02-15T05:25:32;28.35;;;10.40;;
32838;SDS011;19182;41.820;12.808;2023-02-15T05:28:16;18.92;;;8.88;;
32838;SDS011;19182;41.820;12.808;2023-02-15T05:30:46;19.35;;;10.43;;
32838;SDS011;19182;41.820;12.808;2023-02-15T05:33:11;22.33;;;10.85;;
32838;SDS011;19182;41.820;12.808;2023-02-15T05:35:37;21.65;;;10.15;;
32838;SDS011;19182;41.820;12.808;2023-02-15T05:38:04;18.73;;;10.23;;
32838;SDS011;19182;41.820;12.808;2023-02-15T05:40:30;20.17;;;11.15;;
32838;SDS011;19182;41.820;12.808;2023-02-15T05:42:56;21.50;;;10.70;;
32838;SDS011;19182;41.820;12.808;2023-02-15T05:45:22;18.17;;;10.80;;
32838;SDS011;19182;41.820;12.808;2023-02-15T05:47:48;19.35;;;10.27;;
32838;SDS011;19182;41.820;12.808;2023-02-15T05:50:14;16.77;;;9.68;;
32838;SDS011;19182;41.820;12.808;2023-02-15T05:52:40;18.13;;;9.63;;
32838;SDS011;19182;41.820;12.808;2023-02-15T05:55:06;22.33;;;10.63;;
32838;SDS011;19182;41.820;12.808;2023-02-15T05:57:33;21.98;;;10.38;;
32838;SDS011;19182;41.820;12.808;2023-02-15T05:59:59;19.20;;;10.98;;
32838;SDS011;19182;41.820;12.808;2023-02-15T06:02:26;20.08;;;11.20;;
32838;SDS011;19182;41.820;12.808;2023-02-15T06:04:51;21.08;;;10.90;;
32838;SDS011;19182;41.820;12.808;2023-02-15T06:07:17;26.25;;;12.27;;
32838;SDS011;19182;41.820;12.808;2023-02-15T06:09:43;24.58;;;12.20;;
32838;SDS011;19182;41.820;12.808;2023-02-15T06:12:08;20.75;;;11.48;;
32838;SDS011;19182;41.820;12.808;2023-02-15T06:14:34;26.73;;;13.95;;
32838;SDS011;19182;41.820;12.808;2023-02-15T06:17:00;23.77;;;11.57;;
32838;SDS011;19182;41.820;12.808;2023-02-15T06:19:28;21.30;;;11.05;;
32838;SDS011;19182;41.820;12.808;2023-02-15T06:21:54;31.35;;;12.00;;
32838;SDS011;19182;41.820;12.808;2023-02-15T06:24:19;23.77;;;12.07;;
32838;SDS011;19182;41.820;12.808;2023-02-15T06:26:45;23.75;;;11.85;;
32838;SDS011;19182;41.820;12.808;2023-02-15T06:29:11;19.20;;;10.55;;
32838;SDS011;19182;41.820;12.808;2023-02-15T06:31:36;22.65;;;11.18;;
32838;SDS011;19182;41.820;12.808;2023-02-15T06:34:02;23.90;;;12.23;;
32838;SDS011;19182;41.820;12.808;2023-02-15T06:36:29;23.48;;;11.25;;
32838;SDS011;19182;41.820;12.808;2023-02-15T06:38:58;18.73;;;11.25;;
32838;SDS011;19182;41.820;12.808;2023-02-15T06:41:23;19.70;;;10.77;;
32838;SDS011;19182;41.820;12.808;2023-02-15T06:43:50;18.73;;;10.85;;
32838;SDS011;19182;41.820;12.808;2023-02-15T06:46:16;25.30;;;10.73;;
32838;SDS011;19182;41.820;12.808;2023-02-15T06:48:42;20.60;;;11.23;;
32838;SDS011;19182;41.820;12.808;2023-02-15T06:51:07;21.88;;;10.93;;
32838;SDS011;19182;41.820;12.808;2023-02-15T06:53:33;25.20;;;11.55;;
32838;SDS011;19182;41.820;12.808;2023-02-15T06:56:04;21.67;;;11.18;;
32838;SDS011;19182;41.820;12.808;2023-02-15T06:58:34;20.95;;;11.68;;
32838;SDS011;19182;41.820;12.808;2023-02-15T07:01:00;17.42;;;10.75;;
32838;SDS011;19182;41.820;12.808;2023-02-15T07:03:26;20.98;;;11.57;;
32838;SDS011;19182;41.820;12.808;2023-02-15T07:05:55;21.23;;;11.70;;
32838;SDS011;19182;41.820;12.808;2023-02-15T07:08:21;22.33;;;15.13;;
32838;SDS011;19182;41.820;12.808;2023-02-15T07:10:48;25.27;;;12.85;;
32838;SDS011;19182;41.820;12.808;2023-02-15T07:13:15;27.17;;;12.20;;
32838;SDS011;19182;41.820;12.808;2023-02-15T07:15:41;28.58;;;12.35;;
32838;SDS011;19182;41.820;12.808;2023-02-15T07:18:07;20.50;;;12.05;;
32838;SDS011;19182;41.820;12.808;2023-02-15T07:20:34;22.27;;;12.43;;
32838;SDS011;19182;41.820;12.808;2023-02-15T07:23:00;19.15;;;12.25;;
32838;SDS011;19182;41.820;12.808;2023-02-15T07:25:26;20.17;;;12.70;;
32838;SDS011;19182;41.820;12.808;2023-02-15T07:28:02;21.35;;;11.68;;
32838;SDS011;19182;41.820;12.808;2023-02-15T07:30:29;17.58;;;11.43;;
32838;SDS011;19182;41.820;12.808;2023-02-15T07:32:58;16.35;;;10.25;;
32838;SDS011;19182;41.820;12.808;2023-02-15T07:35:46;14.88;;;10.75;;
32838;SDS011;19182;41.820;12.808;2023-02-15T07:38:13;15.75;;;11.15;;
32838;SDS011;19182;41.820;12.808;2023-02-15T07:40:42;16.70;;;10.70;;
32838;SDS011;19182;41.820;12.808;2023-02-15T07:43:09;16.25;;;10.80;;
32838;SDS011;19182;41.820;12.808;2023-02-15T07:45:35;17.83;;;10.50;;
32838;SDS011;19182;41.820;12.808;2023-02-15T07:48:04;17.27;;;10.05;;
32838;SDS011;19182;41.820;12.808;2023-02-15T07:50:30;23.90;;;10.75;;
32838;SDS011;19182;41.820;12.808;2023-02-15T07:52:57;17.23;;;11.43;;
32838;SDS011;19182;41.820;12.808;2023-02-15T07:55:24;14.82;;;10.95;;
32838;SDS011;19182;41.820;12.808;2023-02-15T07:57:50;17.92;;;12.35;;
32838;SDS011;19182;41.820;12.808;2023-02-15T08:00:17;20.63;;;12.27;;
32838;SDS011;19182;41.820;12.808;2023-02-15T08:05:35;18.63;;;12.83;;
32838;SDS011;19182;41.820;12.808;2023-02-15T08:08:02;17.80;;;11.95;;
32838;SDS011;19182;41.820;12.808;2023-02-15T08:10:28;15.00;;;10.50;;
32838;SDS011;19182;41.820;12.808;2023-02-15T08:13:12;16.25;;;11.82;;
32838;SDS011;19182;41.820;12.808;2023-02-15T08:15:38;19.55;;;12.18;;
32838;SDS011;19182;41.820;12.808;2023-02-15T08:18:03;17.95;;;12.13;;
32838;SDS011;19182;41.820;12.808;2023-02-15T08:20:29;16.83;;;11.05;;
32838;SDS011;19182;41.820;12.808;2023-02-15T08:22:55;23.45;;;12.02;;
32838;SDS011;19182;41.820;12.808;2023-02-15T08:25:20;18.60;;;11.32;;
32838;SDS011;19182;41.820;12.808;2023-02-15T08:27:46;21.05;;;11.68;;
32838;SDS011;19182;41.820;12.808;2023-02-15T08:30:14;21.38;;;11.88;;
32838;SDS011;19182;41.820;12.808;2023-02-15T08:32:41;15.95;;;11.77;;
32838;SDS011;19182;41.820;12.808;2023-02-15T08:35:06;16.63;;;12.30;;
32838;SDS011;19182;41.820;12.808;2023-02-15T08:37:32;25.08;;;12.73;;
32838;SDS011;19182;41.820;12.808;2023-02-15T08:39:59;19.33;;;12.70;;
32838;SDS011;19182;41.820;12.808;2023-02-15T08:42:27;18.75;;;13.80;;
32838;SDS011;19182;41.820;12.808;2023-02-15T08:44:55;20.33;;;13.05;;
32838;SDS011;19182;41.820;12.808;2023-02-15T08:47:22;19.17;;;13.25;;
32838;SDS011;19182;41.820;12.808;2023-02-15T08:49:47;20.08;;;14.52;;
32838;SDS011;19182;41.820;12.808;2023-02-15T08:52:13;21.98;;;15.00;;
32838;SDS011;19182;41.820;12.808;2023-02-15T08:54:40;24.25;;;14.52;;
32838;SDS011;19182;41.820;12.808;2023-02-15T08:57:07;23.40;;;15.43;;
32838;SDS011;19182;41.820;12.808;2023-02-15T08:59:35;18.75;;;14.75;;
32838;SDS011;19182;41.820;12.808;2023-02-15T09:02:02;21.85;;;15.45;;
32838;SDS011;19182;41.820;12.808;2023-02-15T09:04:28;20.25;;;13.60;;
32838;SDS011;19182;41.820;12.808;2023-02-15T09:06:54;23.00;;;15.02;;
32838;SDS011;19182;41.820;12.808;2023-02-15T09:09:21;19.95;;;15.25;;
32838;SDS011;19182;41.820;12.808;2023-02-15T09:11:50;21.52;;;13.88;;
32838;SDS011;19182;41.820;12.808;2023-02-15T09:14:17;20.15;;;14.15;;
32838;SDS011;19182;41.820;12.808;2023-02-15T09:16:45;21.40;;;15.50;;
32838;SDS011;19182;41.820;12.808;2023-02-15T09:19:13;18.87;;;13.63;;
32838;SDS011;19182;41.820;12.808;2023-02-15T09:21:42;19.35;;;13.25;;
32838;SDS011;19182;41.820;12.808;2023-02-15T09:26:58;29.88;;;23.30;;
32838;SDS011;19182;41.820;12.808;2023-02-15T09:29:24;18.10;;;13.07;;
32838;SDS011;19182;41.820;12.808;2023-02-15T09:31:51;33.53;;;24.58;;
32838;SDS011;19182;41.820;12.808;2023-02-15T09:34:19;18.17;;;14.07;;
32838;SDS011;19182;41.820;12.808;2023-02-15T09:36:46;23.00;;;13.90;;
32838;SDS011;19182;41.820;12.808;2023-02-15T09:39:14;24.45;;;14.00;;
32838;SDS011;19182;41.820;12.808;2023-02-15T09:44:35;18.13;;;12.65;;
32838;SDS011;19182;41.820;12.808;2023-02-15T09:52:43;14.98;;;10.05;;
32838;SDS011;19182;41.820;12.808;2023-02-15T09:55:38;19.70;;;12.07;;
32838;SDS011;19182;41.820;12.808;2023-02-15T10:01:45;19.77;;;11.50;;
32838;SDS011;19182;41.820;12.808;2023-02-15T10:15:31;16.35;;;11.38;;
32838;SDS011;19182;41.820;12.808;2023-02-15T10:26:20;19.48;;;11.45;;
32838;SDS011;19182;41.820;12.808;2023-02-15T10:28:50;15.88;;;11.50;;
32838;SDS011;19182;41.820;12.808;2023-02-15T10:34:03;19.17;;;11.20;;
32838;SDS011;19182;41.820;12.808;2023-02-15T10:42:10;17.70;;;11.07;;
32838;SDS011;19182;41.820;12.808;2023-02-15T10:47:46;17.38;;;11.73;;
32838;SDS011;19182;41.820;12.808;2023-02-15T11:00:48;17.77;;;11.52;;
32838;SDS011;19182;41.820;12.808;2023-02-15T11:06:32;20.25;;;14.43;;
32838;SDS011;19182;41.820;12.808;2023-02-15T11:09:07;18.33;;;12.80;;
32838;SDS011;19182;41.820;12.808;2023-02-15T11:11:37;16.15;;;12.52;;
32838;SDS011;19182;41.820;12.808;2023-02-15T11:17:02;15.35;;;12.77;;
32838;SDS011;19182;41.820;12.808;2023-02-15T11:19:35;17.25;;;11.80;;
32838;SDS011;19182;41.820;12.808;2023-02-15T11:22:06;18.75;;;12.43;;
32838;SDS011;19182;41.820;12.808;2023-02-15T11:27:21;16.65;;;11.70;;
32838;SDS011;19182;41.820;12.808;2023-02-15T11:32:56;18.05;;;13.20;;
32838;SDS011;19182;41.820;12.808;2023-02-15T11:35:31;16.50;;;11.70;;
32838;SDS011;19182;41.820;12.808;2023-02-15T11:40:48;18.20;;;11.55;;
32838;SDS011;19182;41.820;12.808;2023-02-15T11:43:39;14.77;;;10.60;;
32838;SDS011;19182;41.820;12.808;2023-02-15T11:46:15;15.73;;;11.75;;
32838;SDS011;19182;41.820;12.808;2023-02-15T11:48:43;17.83;;;11.77;;
32838;SDS011;19182;41.820;12.808;2023-02-15T11:51:11;20.90;;;15.85;;
32838;SDS011;19182;41.820;12.808;2023-02-15T11:53:41;18.17;;;12.02;;
32838;SDS011;19182;41.820;12.808;2023-02-15T11:56:24;28.30;;;19.10;;
32838;SDS011;19182;41.820;12.808;2023-02-15T11:58:55;28.80;;;17.40;;
32838;SDS011;19182;41.820;12.808;2023-02-15T12:01:31;33.38;;;21.42;;
32838;SDS011;19182;41.820;12.808;2023-02-15T12:07:19;32.08;;;15.85;;
32838;SDS011;19182;41.820;12.808;2023-02-15T12:12:46;28.00;;;16.63;;
32838;SDS011;19182;41.820;12.808;2023-02-15T12:15:12;76.78;;;32.13;;
32838;SDS011;19182;41.820;12.808;2023-02-15T12:17:39;190.15;;;74.75;;
32838;SDS011;19182;41.820;12.808;2023-02-15T12:22:38;52.47;;;24.35;;
32838;SDS011;19182;41.820;12.808;2023-02-15T12:25:25;51.75;;;27.88;;
32838;SDS011;19182;41.820;12.808;2023-02-15T12:27:58;42.42;;;24.73;;
32838;SDS011;19182;41.820;12.808;2023-02-15T12:32:59;32.60;;;21.77;;
32838;SDS011;19182;41.820;12.808;2023-02-15T12:35:46;34.25;;;22.10;;
32838;SDS011;19182;41.820;12.808;2023-02-15T12:40:43;52.70;;;30.10;;
32838;SDS011;19182;41.820;12.808;2023-02-15T12:43:27;34.80;;;22.27;;
32838;SDS011;19182;41.820;12.808;2023-02-15T12:49:04;30.90;;;20.05;;
32838;SDS011;19182;41.820;12.808;2023-02-15T12:54:31;34.10;;;21.13;;
32838;SDS011;19182;41.820;12.808;2023-02-15T12:57:14;39.58;;;22.95;;
32838;SDS011;19182;41.820;12.808;2023-02-15T12:59:52;31.23;;;20.02;;
32838;SDS011;19182;41.820;12.808;2023-02-15T13:02:41;31.70;;;20.30;;
32838;SDS011;19182;41.820;12.808;2023-02-15T13:07:38;33.28;;;20.67;;
32838;SDS011;19182;41.820;12.808;2023-02-15T13:10:23;46.95;;;25.88;;
32838;SDS011;19182;41.820;12.808;2023-02-15T13:12:51;34.53;;;21.33;;
32838;SDS011;19182;41.820;12.808;2023-02-15T13:16:02;43.60;;;23.70;;
32838;SDS011;19182;41.820;12.808;2023-02-15T13:18:14;35.80;;;23.65;;
32838;SDS011;19182;41.820;12.808;2023-02-15T13:20:50;45.08;;;25.08;;
32838;SDS011;19182;41.820;12.808;2023-02-15T13:23:25;37.10;;;21.88;;
32838;SDS011;19182;41.820;12.808;2023-02-15T13:25:52;42.60;;;22.40;;
32838;SDS011;19182;41.820;12.808;2023-02-15T13:28:31;34.97;;;22.75;;
32838;SDS011;19182;41.820;12.808;2023-02-15T13:31:05;33.70;;;20.23;;
32838;SDS011;19182;41.820;12.808;2023-02-15T13:33:38;33.13;;;23.20;;
32838;SDS011;19182;41.820;12.808;2023-02-15T13:36:16;50.60;;;23.65;;
32838;SDS011;19182;41.820;12.808;2023-02-15T13:52:28;36.95;;;21.92;;
32838;SDS011;19182;41.820;12.808;2023-02-15T14:06:04;38.08;;;21.05;;
32838;SDS011;19182;41.820;12.808;2023-02-15T14:27:25;51.80;;;22.77;;
32838;SDS011;19182;41.820;12.808;2023-02-15T14:32:46;41.08;;;21.23;;
32838;SDS011;19182;41.820;12.808;2023-02-15T14:35:23;43.78;;;22.60;;
32838;SDS011;19182;41.820;12.808;2023-02-15T14:40:38;36.85;;;20.60;;
32838;SDS011;19182;41.820;12.808;2023-02-15T14:48:53;38.78;;;21.30;;
32838;SDS011;19182;41.820;12.808;2023-02-15T14:54:08;45.42;;;24.55;;
32838;SDS011;19182;41.820;12.808;2023-02-15T14:56:35;37.50;;;21.58;;
32838;SDS011;19182;41.820;12.808;2023-02-15T15:01:58;33.55;;;19.23;;
32838;SDS011;19182;41.820;12.808;2023-02-15T15:07:46;46.13;;;24.80;;
32838;SDS011;19182;41.820;12.808;2023-02-15T15:12:43;41.13;;;21.42;;
32838;SDS011;19182;41.820;12.808;2023-02-15T15:25:57;65.28;;;24.35;;
32838;SDS011;19182;41.820;12.808;2023-02-15T15:31:15;42.97;;;21.02;;
32838;SDS011;19182;41.820;12.808;2023-02-15T15:50:56;38.28;;;19.98;;
32838;SDS011;19182;41.820;12.808;2023-02-15T15:53:29;32.95;;;20.17;;
32838;SDS011;19182;41.820;12.808;2023-02-15T15:56:05;27.85;;;20.13;;
32838;SDS011;19182;41.820;12.808;2023-02-15T15:58:36;37.53;;;20.25;;
32838;SDS011;19182;41.820;12.808;2023-02-15T16:01:09;27.13;;;18.83;;
32838;SDS011;19182;41.820;12.808;2023-02-15T16:03:39;32.20;;;20.73;;
32838;SDS011;19182;41.820;12.808;2023-02-15T16:06:25;35.35;;;19.88;;
32838;SDS011;19182;41.820;12.808;2023-02-15T16:11:47;34.78;;;21.00;;
32838;SDS011;19182;41.820;12.808;2023-02-15T16:14:35;32.65;;;18.92;;
32838;SDS011;19182;41.820;12.808;2023-02-15T16:17:05;31.90;;;19.95;;
32838;SDS011;19182;41.820;12.808;2023-02-15T16:19:37;52.10;;;25.80;;
32838;SDS011;19182;41.820;12.808;2023-02-15T16:22:07;43.42;;;23.48;;
32838;SDS011;19182;41.820;12.808;2023-02-15T16:32:48;56.80;;;23.98;;
32838;SDS011;19182;41.820;12.808;2023-02-15T16:35:18;32.88;;;20.17;;
32838;SDS011;19182;41.820;12.808;2023-02-15T16:37:45;34.80;;;19.48;;
32838;SDS011;19182;41.820;12.808;2023-02-15T16:42:51;37.53;;;20.80;;
32838;SDS011;19182;41.820;12.808;2023-02-15T16:45:20;33.67;;;22.08;;
32838;SDS011;19182;41.820;12.808;2023-02-15T16:47:49;40.30;;;23.13;;
32838;SDS011;19182;41.820;12.808;2023-02-15T16:50:46;33.55;;;22.63;;
32838;SDS011;19182;41.820;12.808;2023-02-15T16:53:16;41.25;;;21.35;;
32838;SDS011;19182;41.820;12.808;2023-02-15T16:55:47;36.00;;;22.63;;
32838;SDS011;19182;41.820;12.808;2023-02-15T16:58:20;39.47;;;22.95;;
32838;SDS011;19182;41.820;12.808;2023-02-15T17:00:57;41.17;;;23.50;;
32838;SDS011;19182;41.820;12.808;2023-02-15T17:03:24;47.08;;;25.08;;
32838;SDS011;19182;41.820;12.808;2023-02-15T17:05:53;60.42;;;33.03;;
32838;SDS011;19182;41.820;12.808;2023-02-15T17:11:35;44.15;;;24.33;;
32838;SDS011;19182;41.820;12.808;2023-02-15T17:16:32;48.50;;;27.73;;
32838;SDS011;19182;41.820;12.808;2023-02-15T17:19:00;46.33;;;25.88;;
32838;SDS011;19182;41.820;12.808;2023-02-15T17:21:46;48.40;;;26.15;;
32838;SDS011;19182;41.820;12.808;2023-02-15T17:24:28;48.65;;;26.33;;
32838;SDS011;19182;41.820;12.808;2023-02-15T17:26:58;46.88;;;25.73;;
32838;SDS011;19182;41.820;12.808;2023-02-15T17:29:30;48.42;;;26.65;;
32838;SDS011;19182;41.820;12.808;2023-02-15T17:32:05;48.20;;;26.02;;
32838;SDS011;19182;41.820;12.808;2023-02-15T17:34:49;46.50;;;26.58;;
32838;SDS011;19182;41.820;12.808;2023-02-15T17:39:54;51.00;;;27.88;;
32838;SDS011;19182;41.820;12.808;2023-02-15T17:42:50;56.30;;;30.02;;
32838;SDS011;19182;41.820;12.808;2023-02-15T17:45:16;66.82;;;33.10;;
32838;SDS011;19182;41.820;12.808;2023-02-15T17:47:42;66.05;;;34.67;;
32838;SDS011;19182;41.820;12.808;2023-02-15T17:50:24;65.60;;;35.10;;
32838;SDS011;19182;41.820;12.808;2023-02-15T17:52:51;62.72;;;33.35;;
32838;SDS011;19182;41.820;12.808;2023-02-15T17:55:19;60.90;;;31.52;;
32838;SDS011;19182;41.820;12.808;2023-02-15T17:58:23;73.03;;;39.10;;
32838;SDS011;19182;41.820;12.808;2023-02-15T18:00:50;66.40;;;36.90;;
32838;SDS011;19182;41.820;12.808;2023-02-15T18:06:27;68.85;;;36.50;;
32838;SDS011;19182;41.820;12.808;2023-02-15T18:09:12;72.28;;;35.58;;
32838;SDS011;19182;41.820;12.808;2023-02-15T18:11:58;76.00;;;40.63;;
32838;SDS011;19182;41.820;12.808;2023-02-15T18:14:24;77.93;;;43.25;;
32838;SDS011;19182;41.820;12.808;2023-02-15T18:16:51;70.53;;;41.63;;
32838;SDS011;19182;41.820;12.808;2023-02-15T18:19:17;82.88;;;45.03;;
32838;SDS011;19182;41.820;12.808;2023-02-15T18:21:48;73.40;;;39.55;;
32838;SDS011;19182;41.820;12.808;2023-02-15T18:24:20;79.43;;;44.80;;
32838;SDS011;19182;41.820;12.808;2023-02-15T18:26:50;70.85;;;41.45;;
32838;SDS011;19182;41.820;12.808;2023-02-15T18:29:17;83.95;;;41.85;;
32838;SDS011;19182;41.820;12.808;2023-02-15T18:31:43;69.72;;;41.05;;